Time;durP1;ratioP1;P1;durP2;ratioP2;P2;SDS_P1;SDS_P2;PMS_P1;PMS_P2;Temp;Humidity;BMP_temperature;BMP_pressure;BME280_temperature;BME280_humidity;BME280_pressure;Samples;Min_cycle;Max_cycle;Signal;HPM_P1;HPM_P2
2022/07/25 00:01:44;;;;;;;13.63;12.33;;;;;;;-146.72;100.00;64895.28;5072228;28;20518;-76
2022/07/25 00:04:13;;;;;;;13.93;12.67;;;;;;;-146.72;100.00;64895.28;5089099;28;20789;-76
2022/07/25 00:06:41;;;;;;;14.97;13.30;;;;;;;-146.72;100.00;64895.28;5072181;28;20444;-76
2022/07/25 00:09:09;;;;;;;13.80;12.57;;;;;;;-146.72;100.00;64895.28;5071943;28;20487;-76
2022/07/25 00:11:36;;;;;;;13.60;12.13;;;;;;;-146.72;100.00;64895.28;5072243;28;20456;-76
2022/07/25 00:14:04;;;;;;;13.17;11.87;;;;;;;-146.72;100.00;64895.28;5091297;28;20817;-76
2022/07/25 00:16:31;;;;;;;14.20;12.80;;;;;;;-146.72;100.00;64895.28;5059451;28;20491;-75
2022/07/25 00:18:58;;;;;;;15.17;13.63;;;;;;;-146.72;100.00;64895.28;5076865;28;20453;-75
2022/07/25 00:21:25;;;;;;;16.57;14.97;;;;;;;-146.72;100.00;64895.28;5074422;28;20437;-75
2022/07/25 00:23:52;;;;;;;13.77;12.67;;;;;;;-146.72;100.00;64895.28;5073290;28;20436;-75
2022/07/25 00:26:19;;;;;;;14.10;12.87;;;;;;;-146.72;100.00;64895.28;5071924;28;20464;-75
2022/07/25 00:28:45;;;;;;;15.50;14.10;;;;;;;-146.72;100.00;64895.28;5071611;28;20519;-75
2022/07/25 00:31:12;;;;;;;14.67;13.23;;;;;;;-146.72;100.00;64895.28;5073298;28;20832;-75
2022/07/25 00:33:39;;;;;;;16.33;14.90;;;;;;;-146.72;100.00;64895.28;5072015;28;20470;-75
2022/07/25 00:36:08;;;;;;;14.90;13.40;;;;;;;-146.72;100.00;64895.28;5064227;28;20481;-75
2022/07/25 00:38:35;;;;;;;14.73;13.33;;;;;;;-146.72;100.00;64895.28;5073919;28;20487;-75
2022/07/25 00:41:03;;;;;;;15.67;14.37;;;;;;;-146.72;100.00;64895.28;5091777;28;20443;-75
2022/07/25 00:43:30;;;;;;;14.20;12.97;;;;;;;-146.72;100.00;64895.28;5075342;28;20437;-75
2022/07/25 00:45:57;;;;;;;14.00;12.97;;;;;;;-146.72;100.00;64895.28;5088414;28;20428;-75
2022/07/25 00:48:26;;;;;;;14.37;12.97;;;;;;;-146.72;100.00;64895.28;5072630;28;20468;-75
2022/07/25 00:50:54;;;;;;;15.43;14.10;;;;;;;-146.72;100.00;64895.28;5069293;28;20445;-75
2022/07/25 00:53:21;;;;;;;16.57;15.17;;;;;;;-146.72;100.00;64895.28;5086237;28;20428;-75
2022/07/25 00:55:48;;;;;;;14.87;13.57;;;;;;;-146.72;100.00;64895.28;5091997;28;20485;-75
2022/07/25 00:58:15;;;;;;;14.20;12.90;;;;;;;-146.72;100.00;64895.28;5074819;28;20436;-75
2022/07/25 01:00:41;;;;;;;13.13;12.13;;;;;;;-146.72;100.00;64895.28;5091573;28;20443;-75
2022/07/25 01:03:08;;;;;;;14.63;13.43;;;;;;;-146.72;100.00;64895.28;5074571;28;20447;-75
2022/07/25 01:05:35;;;;;;;15.27;14.00;;;;;;;-146.72;100.00;64895.28;5091378;28;20471;-76
2022/07/25 01:08:03;;;;;;;16.30;15.00;;;;;;;-146.72;100.00;64895.28;5074396;28;20550;-76
2022/07/25 01:10:33;;;;;;;15.17;13.93;;;;;;;-146.72;100.00;64895.28;5092612;28;20800;-76
2022/07/25 01:13:00;;;;;;;14.87;13.27;;;;;;;-146.72;100.00;64895.28;5091191;28;21005;-75
2022/07/25 01:15:27;;;;;;;14.23;13.03;;;;;;;-146.72;100.00;64895.28;5091149;28;20451;-75
2022/07/25 01:17:54;;;;;;;16.53;14.90;;;;;;;-146.72;100.00;64895.28;5091164;28;20427;-75
2022/07/25 01:20:23;;;;;;;14.60;13.30;;;;;;;-146.72;100.00;64895.28;5074205;28;20456;-75
2022/07/25 01:22:50;;;;;;;16.80;15.40;;;;;;;-146.72;100.00;64895.28;5090889;28;20523;-75
2022/07/25 01:25:18;;;;;;;14.17;12.90;;;;;;;-146.72;100.00;64895.28;5074308;28;20428;-75
2022/07/25 01:27:46;;;;;;;14.80;13.50;;;;;;;-146.72;100.00;64895.28;5090745;28;20554;-75
2022/07/25 01:30:21;;;;;;;14.53;13.13;;;;;;;-146.72;100.00;64895.28;5091023;28;20462;-75
2022/07/25 01:32:48;;;;;;;16.47;14.77;;;;;;;-146.72;100.00;64895.28;5074243;28;20491;-75
2022/07/25 01:35:15;;;;;;;16.57;14.97;;;;;;;-146.72;100.00;64895.28;5091334;28;20480;-75
2022/07/25 01:37:42;;;;;;;17.00;15.37;;;;;;;-146.72;100.00;64895.28;5078439;28;20431;-75
2022/07/25 01:40:12;;;;;;;15.77;14.47;;;;;;;-146.72;100.00;64895.28;5078699;28;20451;-75
2022/07/25 01:42:40;;;;;;;16.17;14.83;;;;;;;-146.72;100.00;64895.28;5086297;28;20447;-75
2022/07/25 01:45:07;;;;;;;16.10;14.73;;;;;;;-146.72;100.00;64895.28;5074649;28;20437;-75
2022/07/25 01:47:34;;;;;;;15.77;14.40;;;;;;;-146.72;100.00;64895.28;5070301;28;20498;-75
2022/07/25 01:50:00;;;;;;;17.00;15.60;;;;;;;-146.72;100.00;64895.28;5062677;28;20497;-75
2022/07/25 01:52:27;;;;;;;17.00;15.60;;;;;;;-146.72;100.00;64895.28;5070178;28;20445;-75
2022/07/25 01:54:54;;;;;;;15.50;14.10;;;;;;;-146.72;100.00;64895.28;5070200;28;20440;-75
2022/07/25 01:57:22;;;;;;;15.93;14.20;;;;;;;-146.72;100.00;64895.28;5086788;28;20421;-75
2022/07/25 01:59:55;;;;;;;17.20;15.23;;;;;;;-146.72;100.00;64895.28;5069967;28;20980;-75
2022/07/25 02:02:22;;;;;;;16.60;14.10;;;;;;;-146.72;100.00;64895.28;5070219;28;21027;-75
2022/07/25 02:04:48;;;;;;;15.90;14.40;;;;;;;-146.72;100.00;64895.28;5086843;28;20457;-75
2022/07/25 02:07:15;;;;;;;17.20;15.30;;;;;;;-146.72;100.00;64895.28;5070016;28;20482;-75
2022/07/25 02:09:42;;;;;;;15.50;14.20;;;;;;;-146.72;100.00;64895.28;5069763;28;20505;-75
2022/07/25 02:12:08;;;;;;;16.73;13.23;;;;;;;-146.72;100.00;64895.28;5053340;28;20432;-75
2022/07/25 02:14:35;;;;;;;15.03;13.90;;;;;;;-146.72;100.00;64895.28;5069800;28;20456;-75
2022/07/25 02:17:02;;;;;;;16.70;14.17;;;;;;;-146.72;100.00;64895.28;5069890;28;20448;-75
2022/07/25 02:19:29;;;;;;;15.77;14.47;;;;;;;-146.72;100.00;64895.28;5069654;28;20533;-75
2022/07/25 02:21:56;;;;;;;16.67;14.23;;;;;;;-146.72;100.00;64895.28;5069980;28;20451;-75
2022/07/25 02:24:22;;;;;;;15.70;14.00;;;;;;;-146.72;100.00;64895.28;5069794;28;20869;-75
2022/07/25 02:26:49;;;;;;;15.30;13.87;;;;;;;-146.72;100.00;64895.28;5069755;28;20494;-75
2022/07/25 02:29:16;;;;;;;15.13;13.60;;;;;;;-146.72;100.00;64895.28;5069476;28;20571;-75
2022/07/25 02:31:47;;;;;;;17.63;15.90;;;;;;;-146.72;100.00;64895.28;5069679;28;20429;-75
2022/07/25 02:34:14;;;;;;;17.07;15.47;;;;;;;-146.72;100.00;64895.28;5069473;28;20506;-75
2022/07/25 02:36:41;;;;;;;19.63;13.20;;;;;;;-146.72;100.00;64895.28;5053107;28;20527;-75
2022/07/25 02:39:08;;;;;;;15.97;14.60;;;;;;;-146.72;100.00;64895.28;5069424;28;20456;-75
2022/07/25 02:41:34;;;;;;;14.63;13.10;;;;;;;-146.72;100.00;64895.28;5052899;28;20429;-75
2022/07/25 02:44:01;;;;;;;15.37;13.60;;;;;;;-146.72;100.00;64895.28;5069505;28;20471;-75
2022/07/25 02:46:28;;;;;;;15.33;12.53;;;;;;;-146.72;100.00;64895.28;5052858;28;20445;-75
2022/07/25 02:48:54;;;;;;;14.47;12.80;;;;;;;-146.72;100.00;64895.28;5050118;28;20508;-75
2022/07/25 02:51:21;;;;;;;16.40;14.13;;;;;;;-146.72;100.00;64895.28;5063784;28;20455;-75
2022/07/25 02:53:50;;;;;;;15.03;13.73;;;;;;;-146.72;100.00;64895.28;5090032;28;20432;-75
2022/07/25 02:56:25;;;;;;;18.20;13.27;;;;;;;-146.72;100.00;64895.28;5075429;28;20920;-75
2022/07/25 02:58:56;;;;;;;16.43;14.57;;;;;;;-146.72;100.00;64895.28;5075523;28;20873;-75
2022/07/25 03:01:23;;;;;;;16.47;14.97;;;;;;;-146.72;100.00;64895.28;5075283;28;20952;-75
2022/07/25 03:03:50;;;;;;;15.87;14.30;;;;;;;-146.72;100.00;64895.28;5073597;28;20432;-76
2022/07/25 03:06:17;;;;;;;15.30;12.47;;;;;;;-146.72;100.00;64895.28;5073373;28;20935;-74
2022/07/25 03:08:43;;;;;;;15.63;14.03;;;;;;;-146.72;100.00;64895.28;5073307;28;20476;-74
2022/07/25 03:11:12;;;;;;;17.53;15.57;;;;;;;-146.72;100.00;64895.28;5074700;28;20952;-74
2022/07/25 03:13:38;;;;;;;17.73;15.93;;;;;;;-146.72;100.00;64895.28;5090259;28;20475;-74
2022/07/25 03:16:05;;;;;;;17.97;16.30;;;;;;;-146.72;100.00;64895.28;5072971;28;20999;-74
2022/07/25 03:18:32;;;;;;;15.13;13.50;;;;;;;-146.72;100.00;64895.28;5074523;28;20968;-74
2022/07/25 03:20:59;;;;;;;14.90;13.50;;;;;;;-146.72;100.00;64895.28;5073056;28;20425;-74
2022/07/25 03:23:27;;;;;;;16.27;14.83;;;;;;;-146.72;100.00;64895.28;5073090;28;20428;-74
2022/07/25 03:25:54;;;;;;;14.80;13.70;;;;;;;-146.72;100.00;64895.28;5073168;28;20427;-74
2022/07/25 03:28:23;;;;;;;17.10;14.80;;;;;;;-146.72;100.00;64895.28;5073098;28;20479;-74
2022/07/25 03:30:50;;;;;;;17.13;15.40;;;;;;;-146.72;100.00;64895.28;5079299;28;20849;-74
2022/07/25 03:33:17;;;;;;;12.57;11.50;;;;;;;-146.72;100.00;64895.28;5077667;28;20472;-73
2022/07/25 03:35:44;;;;;;;15.90;14.30;;;;;;;-146.72;100.00;64895.28;5094698;28;20501;-74
2022/07/25 03:38:10;;;;;;;15.10;13.70;;;;;;;-146.72;100.00;64895.28;5076458;28;20880;-74
2022/07/25 03:40:37;;;;;;;17.77;16.17;;;;;;;-146.72;100.00;64895.28;5093323;28;20435;-74
2022/07/25 03:43:04;;;;;;;17.50;15.80;;;;;;;-146.72;100.00;64895.28;5064351;28;20862;-75
2022/07/25 03:45:31;;;;;;;17.77;15.93;;;;;;;-146.72;100.00;64895.28;5073252;28;20472;-74
2022/07/25 03:47:57;;;;;;;21.07;16.07;;;;;;;-146.72;100.00;64895.28;5073147;28;20494;-74
2022/07/25 03:50:24;;;;;;;22.10;15.00;;;;;;;-146.72;100.00;64895.28;5065605;28;20748;-74
2022/07/25 03:52:51;;;;;;;16.30;14.60;;;;;;;-146.72;100.00;64895.28;5073183;28;20464;-74
2022/07/25 03:55:17;;;;;;;15.73;14.43;;;;;;;-146.72;100.00;64895.28;5073168;28;20474;-74
2022/07/25 03:57:44;;;;;;;15.60;14.20;;;;;;;-146.72;100.00;64895.28;5089931;28;21241;-74
2022/07/25 04:00:11;;;;;;;14.90;13.63;;;;;;;-146.72;100.00;64895.28;5056283;28;20539;-74
2022/07/25 04:02:38;;;;;;;15.83;14.33;;;;;;;-146.72;100.00;64895.28;5072974;28;20865;-74
2022/07/25 04:05:06;;;;;;;16.03;14.23;;;;;;;-146.72;100.00;64895.28;5072923;28;20459;-74
2022/07/25 04:07:34;;;;;;;15.97;14.47;;;;;;;-146.72;100.00;64895.28;5072783;28;20507;-74
2022/07/25 04:10:01;;;;;;;15.80;13.33;;;;;;;-146.72;100.00;64895.28;5072647;28;20983;-74
2022/07/25 04:12:27;;;;;;;14.67;13.37;;;;;;;-146.72;100.00;64895.28;5072707;28;20460;-74
2022/07/25 04:14:54;;;;;;;14.37;12.80;;;;;;;-146.72;100.00;64895.28;5090083;28;20498;-74
2022/07/25 04:17:21;;;;;;;15.60;13.20;;;;;;;-146.72;100.00;64895.28;5074592;28;20452;-74
2022/07/25 04:19:51;;;;;;;16.57;14.93;;;;;;;-146.72;100.00;64895.28;5073073;28;20445;-74
2022/07/25 04:22:19;;;;;;;17.00;15.27;;;;;;;-146.72;100.00;64895.28;5081384;28;20445;-74
2022/07/25 04:24:45;;;;;;;15.87;14.43;;;;;;;-146.72;100.00;64895.28;5074836;28;20472;-75
2022/07/25 04:27:12;;;;;;;15.57;13.93;;;;;;;-146.72;100.00;64895.28;5096267;28;20431;-74
2022/07/25 04:29:39;;;;;;;18.77;14.83;;;;;;;-146.72;100.00;64895.28;5081629;28;20463;-74
2022/07/25 04:32:06;;;;;;;16.77;15.07;;;;;;;-146.72;100.00;64895.28;5092829;28;20430;-75
2022/07/25 04:34:33;;;;;;;16.63;14.43;;;;;;;-146.72;100.00;64895.28;5092630;28;20493;-74
2022/07/25 04:36:59;;;;;;;16.73;14.50;;;;;;;-146.72;100.00;64895.28;5093703;28;20775;-74
2022/07/25 04:39:26;;;;;;;17.73;15.37;;;;;;;-146.72;100.00;64895.28;5075708;28;20448;-74
2022/07/25 04:41:53;;;;;;;14.63;13.30;;;;;;;-146.72;100.00;64895.28;5072632;28;20467;-74
2022/07/25 04:44:20;;;;;;;16.20;14.40;;;;;;;-146.72;100.00;64895.28;5055724;28;20440;-74
2022/07/25 04:46:46;;;;;;;16.27;14.77;;;;;;;-146.72;100.00;64895.28;5072270;28;20455;-74
2022/07/25 04:49:13;;;;;;;17.83;15.83;;;;;;;-146.72;100.00;64895.28;5066717;28;20472;-74
2022/07/25 04:51:40;;;;;;;17.00;15.40;;;;;;;-146.72;100.00;64895.28;5070791;28;20810;-74
2022/07/25 04:54:08;;;;;;;19.67;15.17;;;;;;;-146.72;100.00;64895.28;5072229;28;20474;-74
2022/07/25 04:56:35;;;;;;;14.87;13.37;;;;;;;-146.72;100.00;64895.28;5071778;28;21001;-74
2022/07/25 04:59:02;;;;;;;17.73;16.07;;;;;;;-146.72;100.00;64895.28;5073320;28;20444;-74
2022/07/25 05:01:33;;;;;;;20.80;14.83;;;;;;;-146.72;100.00;64895.28;5071769;28;20482;-74
2022/07/25 05:03:59;;;;;;;20.27;15.57;;;;;;;-146.72;100.00;64895.28;5071723;28;20520;-74
2022/07/25 05:06:26;;;;;;;16.20;14.57;;;;;;;-146.72;100.00;64895.28;5073080;28;20425;-74
2022/07/25 05:08:53;;;;;;;14.17;12.80;;;;;;;-146.72;100.00;64895.28;5071584;28;20492;-74
2022/07/25 05:11:19;;;;;;;16.03;14.30;;;;;;;-146.72;100.00;64895.28;5071701;28;20436;-74
2022/07/25 05:13:46;;;;;;;15.40;13.60;;;;;;;-146.72;100.00;64895.28;5071689;28;20475;-74
2022/07/25 05:16:13;;;;;;;13.13;12.00;;;;;;;-146.72;100.00;64895.28;5071590;28;20463;-74
2022/07/25 05:18:40;;;;;;;15.50;14.20;;;;;;;-146.72;100.00;64895.28;5072644;28;20456;-74
2022/07/25 05:21:09;;;;;;;13.57;12.20;;;;;;;-146.72;100.00;64895.28;5054713;28;20456;-74
2022/07/25 05:23:36;;;;;;;13.80;12.67;;;;;;;-146.72;100.00;64895.28;5087787;28;20424;-74
2022/07/25 05:26:03;;;;;;;14.10;12.80;;;;;;;-146.72;100.00;64895.28;5055123;28;21018;-75
2022/07/25 05:28:30;;;;;;;15.57;13.90;;;;;;;-146.72;100.00;64895.28;5087970;28;20465;-74
2022/07/25 05:30:56;;;;;;;15.43;14.10;;;;;;;-146.72;100.00;64895.28;5071093;28;20440;-74
2022/07/25 05:33:23;;;;;;;16.73;13.77;;;;;;;-146.72;100.00;64895.28;5071216;28;20468;-75
2022/07/25 05:35:50;;;;;;;15.53;13.93;;;;;;;-146.72;100.00;64895.28;5071163;28;20964;-74
2022/07/25 05:38:17;;;;;;;13.43;12.20;;;;;;;-146.72;100.00;64895.28;5070928;28;20437;-75
2022/07/25 05:40:44;;;;;;;14.63;13.43;;;;;;;-146.72;100.00;64895.28;5072272;28;20421;-75
2022/07/25 05:43:11;;;;;;;14.77;13.10;;;;;;;-146.72;100.00;64895.28;5071049;28;20475;-75
2022/07/25 05:45:38;;;;;;;13.40;12.30;;;;;;;-146.72;100.00;64895.28;5071569;28;20468;-75
2022/07/25 05:48:05;;;;;;;12.40;11.40;;;;;;;-146.72;100.00;64895.28;5073766;28;20532;-75
2022/07/25 05:50:32;;;;;;;14.50;13.30;;;;;;;-146.72;100.00;64895.28;5074292;28;20492;-75
2022/07/25 05:52:58;;;;;;;12.50;11.50;;;;;;;-146.72;100.00;64895.28;5082102;28;20486;-75
2022/07/25 05:55:25;;;;;;;12.73;11.47;;;;;;;-146.72;100.00;64895.28;5081994;28;20448;-75
2022/07/25 05:57:52;;;;;;;12.27;11.33;;;;;;;-146.72;100.00;64895.28;5081757;28;20444;-75
2022/07/25 06:00:18;;;;;;;13.40;12.20;;;;;;;-146.72;100.00;64895.28;5072551;28;20483;-76
2022/07/25 06:02:45;;;;;;;12.20;11.20;;;;;;;-146.72;100.00;64895.28;5070549;28;20456;-75
2022/07/25 06:05:12;;;;;;;12.40;11.20;;;;;;;-146.72;100.00;64895.28;5070923;28;20520;-75
2022/07/25 06:07:40;;;;;;;13.80;12.10;;;;;;;-146.72;100.00;64895.28;5087447;28;20520;-75
2022/07/25 06:10:07;;;;;;;13.27;12.20;;;;;;;-146.72;100.00;64895.28;5053931;28;20468;-75
2022/07/25 06:12:33;;;;;;;13.40;12.30;;;;;;;-146.72;100.00;64895.28;5053937;28;20463;-75
2022/07/25 06:15:02;;;;;;;12.37;11.27;;;;;;;-146.72;100.00;64895.28;5070469;28;20444;-75
2022/07/25 06:17:29;;;;;;;11.63;10.63;;;;;;;-146.72;100.00;64895.28;5087378;28;20454;-75
2022/07/25 06:19:58;;;;;;;13.73;12.43;;;;;;;-146.72;100.00;64895.28;5070476;28;20455;-75
2022/07/25 06:22:25;;;;;;;11.57;10.47;;;;;;;-146.72;100.00;64895.28;5070084;28;20498;-75
2022/07/25 06:24:52;;;;;;;54.93;15.10;;;;;;;-146.72;100.00;64895.28;5073683;28;20477;-75
2022/07/25 06:27:18;;;;;;;13.63;12.23;;;;;;;-146.72;100.00;64895.28;5073723;28;20530;-75
2022/07/25 06:29:48;;;;;;;12.27;11.27;;;;;;;-146.72;100.00;64895.28;5091811;28;20545;-75
2022/07/25 06:32:15;;;;;;;12.87;11.60;;;;;;;-146.72;100.00;64895.28;5090454;28;20523;-75
2022/07/25 06:34:42;;;;;;;11.00;10.13;;;;;;;-146.72;100.00;64895.28;5090423;28;20508;-75
2022/07/25 06:37:09;;;;;;;11.77;10.87;;;;;;;-146.72;100.00;64895.28;5090968;28;20994;-75
2022/07/25 06:39:35;;;;;;;11.83;10.73;;;;;;;-146.72;100.00;64895.28;5073475;28;20498;-75
2022/07/25 06:42:03;;;;;;;12.30;11.10;;;;;;;-146.72;100.00;64895.28;5082789;28;20441;-75
2022/07/25 06:44:33;;;;;;;12.17;11.10;;;;;;;-146.72;100.00;64895.28;5061923;28;20881;-75
2022/07/25 06:47:01;;;;;;;11.33;10.53;;;;;;;-146.72;100.00;64895.28;5086866;28;20452;-75
2022/07/25 06:49:27;;;;;;;11.27;10.17;;;;;;;-146.72;100.00;64895.28;5045863;28;20461;-76
2022/07/25 06:51:54;;;;;;;14.07;12.53;;;;;;;-146.72;100.00;64895.28;5068928;28;20472;-76
2022/07/25 06:54:21;;;;;;;15.73;11.80;;;;;;;-146.72;100.00;64895.28;5071591;28;20841;-76
2022/07/25 06:56:48;;;;;;;11.83;10.70;;;;;;;-146.72;100.00;64895.28;5069952;28;20435;-76
2022/07/25 06:59:14;;;;;;;12.63;11.50;;;;;;;-146.72;100.00;64895.28;5069704;28;20575;-76
2022/07/25 07:01:41;;;;;;;11.97;10.77;;;;;;;-146.72;100.00;64895.28;5071349;28;20830;-75
2022/07/25 07:04:09;;;;;;;12.00;11.10;;;;;;;-146.72;100.00;64895.28;5071028;28;20455;-75
2022/07/25 07:06:37;;;;;;;11.87;10.97;;;;;;;-146.72;100.00;64895.28;5053415;28;20520;-75
2022/07/25 07:09:04;;;;;;;11.27;10.47;;;;;;;-146.72;100.00;64895.28;5069390;28;20503;-75
2022/07/25 07:11:33;;;;;;;11.17;10.00;;;;;;;-146.72;100.00;64895.28;5070578;28;20511;-75
2022/07/25 07:14:01;;;;;;;11.93;10.80;;;;;;;-146.72;100.00;64895.28;5071058;28;20476;-74
2022/07/25 07:16:29;;;;;;;10.97;10.17;;;;;;;-146.72;100.00;64895.28;5069652;28;20447;-75
2022/07/25 07:18:57;;;;;;;12.23;11.23;;;;;;;-146.72;100.00;64895.28;5069620;28;20558;-75
2022/07/25 07:21:24;;;;;;;11.27;10.27;;;;;;;-146.72;100.00;64895.28;5087424;28;20437;-75
2022/07/25 07:23:51;;;;;;;10.47;9.00;;;;;;;-146.72;100.00;64895.28;5075979;28;20932;-75
2022/07/25 07:26:20;;;;;;;11.00;10.00;;;;;;;-146.72;100.00;64895.28;5096205;28;20460;-75
2022/07/25 07:28:46;;;;;;;11.13;10.20;;;;;;;-146.72;100.00;64895.28;5096884;28;21033;-75
2022/07/25 07:31:16;;;;;;;11.80;10.80;;;;;;;-146.72;100.00;64895.28;5097224;28;20472;-75
2022/07/25 07:33:44;;;;;;;10.40;9.50;;;;;;;-146.72;100.00;64895.28;5080463;28;20482;-75
2022/07/25 07:36:11;;;;;;;11.43;9.77;;;;;;;-146.72;100.00;64895.28;5053463;28;20527;-75
2022/07/25 07:38:38;;;;;;;10.73;9.80;;;;;;;-146.72;100.00;64895.28;5072856;28;20504;-75
2022/07/25 07:41:05;;;;;;;9.80;9.00;;;;;;;-146.72;100.00;64895.28;5089921;28;20522;-75
2022/07/25 07:43:32;;;;;;;10.90;9.47;;;;;;;-146.72;100.00;64895.28;5073261;28;20464;-76
2022/07/25 07:46:01;;;;;;;9.30;8.00;;;;;;;-146.72;100.00;64895.28;5070135;28;20444;-76
2022/07/25 07:48:29;;;;;;;8.77;8.07;;;;;;;-146.72;100.00;64895.28;5074012;28;20468;-75
2022/07/25 07:50:57;;;;;;;9.97;9.17;;;;;;;-146.72;100.00;64895.28;5065963;28;20463;-75
2022/07/25 07:56:09;;;;;;;8.37;7.60;;;;;;;-146.72;100.00;64895.28;5073083;28;20440;-75
2022/07/25 07:58:36;;;;;;;8.27;7.53;;;;;;;-146.72;100.00;64895.28;5074467;28;20813;-75
2022/07/25 08:01:03;;;;;;;8.73;7.93;;;;;;;-146.72;100.00;64895.28;5056377;28;20520;-75
2022/07/25 08:03:30;;;;;;;7.27;6.70;;;;;;;-146.72;100.00;64895.28;5074371;28;20428;-75
2022/07/25 08:05:57;;;;;;;8.97;8.10;;;;;;;-146.72;100.00;64895.28;5072973;28;20468;-75
2022/07/25 08:08:24;;;;;;;8.80;7.90;;;;;;;-146.72;100.00;64895.28;5074176;28;20527;-75
2022/07/25 08:10:57;;;;;;;8.43;7.37;;;;;;;-146.72;100.00;64895.28;5089617;28;20855;-75
2022/07/25 08:13:27;;;;;;;9.77;8.20;;;;;;;-146.72;100.00;64895.28;5072685;28;20482;-75
2022/07/25 08:15:57;;;;;;;8.27;7.67;;;;;;;-146.72;100.00;64895.28;5073958;28;20870;-75
2022/07/25 08:18:26;;;;;;;7.37;6.80;;;;;;;-146.72;100.00;64895.28;5072882;28;20506;-76
2022/07/25 08:20:53;;;;;;;8.47;7.87;;;;;;;-146.72;100.00;64895.28;5090187;28;20419;-76
2022/07/25 08:23:21;;;;;;;8.80;8.00;;;;;;;-146.72;100.00;64895.28;5093071;28;20423;-76
2022/07/25 08:25:48;;;;;;;8.93;8.13;;;;;;;-146.72;100.00;64895.28;5076237;28;21017;-76
2022/07/25 08:28:14;;;;;;;7.47;6.80;;;;;;;-146.72;100.00;64895.28;5093257;28;20436;-77
2022/07/25 08:30:42;;;;;;;9.37;8.60;;;;;;;-146.72;100.00;64895.28;5094435;28;20571;-77
2022/07/25 08:33:12;;;;;;;9.57;7.83;;;;;;;-146.72;100.00;64895.28;5061794;28;20437;-76
2022/07/25 08:35:40;;;;;;;9.03;8.23;;;;;;;-146.72;100.00;64895.28;5050921;28;20433;-76
2022/07/25 08:38:10;;;;;;;8.20;7.60;;;;;;;-146.72;100.00;64895.28;5078212;28;20415;-76
2022/07/25 08:40:37;;;;;;;8.27;7.67;;;;;;;-146.72;100.00;64895.28;5057245;28;20432;-76
2022/07/25 08:43:04;;;;;;;8.60;7.90;;;;;;;-146.72;100.00;64895.28;5074179;28;21134;-77
2022/07/25 08:45:31;;;;;;;7.43;6.83;;;;;;;-146.72;100.00;64895.28;5075794;28;20556;-76
2022/07/25 08:47:58;;;;;;;7.00;6.43;;;;;;;-146.72;100.00;64895.28;5093022;28;20943;-77
2022/07/25 08:50:27;;;;;;;8.07;7.20;;;;;;;-146.72;100.00;64895.28;5076957;28;20542;-77
2022/07/25 08:52:54;;;;;;;9.47;7.50;;;;;;;-146.72;100.00;64895.28;5072921;28;20443;-77
2022/07/25 08:55:43;;;;;;;8.77;7.80;;;;;;;-146.72;100.00;64895.28;5062321;28;20433;-77
2022/07/25 08:58:13;;;;;;;7.57;6.80;;;;;;;-146.72;100.00;64895.28;5048979;28;20441;-77
2022/07/25 09:00:40;;;;;;;8.10;7.30;;;;;;;-146.72;100.00;64895.28;5071746;28;20440;-76
2022/07/25 09:03:07;;;;;;;7.40;6.90;;;;;;;-146.72;100.00;64895.28;5078565;28;20803;-78
2022/07/25 09:05:35;;;;;;;7.90;7.30;;;;;;;-146.72;100.00;64895.28;5076179;28;20432;-77
2022/07/25 09:08:13;;;;;;;8.03;7.43;;;;;;;-146.72;100.00;64895.28;5093273;28;20500;-77
2022/07/25 09:10:47;;;;;;;7.63;7.03;;;;;;;-146.72;100.00;64895.28;5082557;28;21258;-77
2022/07/25 09:13:15;;;;;;;8.03;7.33;;;;;;;-146.72;100.00;64895.28;5078827;28;20452;-77
2022/07/25 09:15:50;;;;;;;9.00;8.20;;;;;;;-146.72;100.00;64895.28;5057918;28;20483;-78
2022/07/25 09:18:23;;;;;;;7.67;7.07;;;;;;;-146.72;100.00;64895.28;5086594;28;20440;-77
2022/07/25 09:20:52;;;;;;;8.00;7.23;;;;;;;-146.72;100.00;64895.28;5074583;28;20423;-76
2022/07/25 09:23:38;;;;;;;8.50;7.30;;;;;;;-146.72;100.00;64895.28;5069930;28;20428;-77
2022/07/25 09:26:12;;;;;;;8.33;7.23;;;;;;;-146.72;100.00;64895.28;5080239;28;20947;-77
2022/07/25 09:28:44;;;;;;;7.37;6.87;;;;;;;-146.72;100.00;64895.28;5078220;28;21030;-77
2022/07/25 09:31:13;;;;;;;7.60;7.00;;;;;;;-146.72;100.00;64895.28;5079798;28;20453;-77
2022/07/25 09:33:55;;;;;;;8.17;7.47;;;;;;;-146.72;100.00;64895.28;5062163;28;20494;-77
2022/07/25 09:36:22;;;;;;;6.07;5.67;;;;;;;-146.72;100.00;64895.28;5081668;28;20518;-77
2022/07/25 09:39:00;;;;;;;6.70;6.20;;;;;;;-146.72;100.00;64895.28;5072743;28;20455;-77
2022/07/25 09:41:38;;;;;;;6.80;6.30;;;;;;;-146.72;100.00;64895.28;5085644;28;20415;-77
2022/07/25 09:44:16;;;;;;;6.90;6.40;;;;;;;-146.72;100.00;64895.28;5067518;28;20510;-77
2022/07/25 09:46:43;;;;;;;6.77;6.27;;;;;;;-146.72;100.00;64895.28;5057712;28;20439;-77
2022/07/25 09:49:13;;;;;;;7.37;6.77;;;;;;;-146.72;100.00;64895.28;5065894;28;20497;-77
2022/07/25 09:51:43;;;;;;;7.50;6.80;;;;;;;-146.72;100.00;64895.28;5078985;28;20487;-78
2022/07/25 09:54:10;;;;;;;6.90;6.40;;;;;;;-146.72;100.00;64895.28;5074495;28;20543;-77
2022/07/25 09:56:37;;;;;;;7.70;7.10;;;;;;;-146.72;100.00;64895.28;5077626;28;20435;-77
2022/07/25 09:59:04;;;;;;;7.97;7.27;;;;;;;-146.72;100.00;64895.28;5062927;28;20500;-78
2022/07/25 10:01:38;;;;;;;10.20;7.60;;;;;;;-146.72;100.00;64895.28;5084580;28;21369;-77
2022/07/25 10:04:21;;;;;;;8.47;7.83;;;;;;;-146.72;100.00;64895.28;5088382;28;20421;-77
2022/07/25 10:07:03;;;;;;;7.70;7.10;;;;;;;-146.72;100.00;64895.28;5056217;28;20519;-77
2022/07/25 10:09:31;;;;;;;9.07;8.33;;;;;;;-146.72;100.00;64895.28;5071651;28;20452;-77
2022/07/25 10:12:08;;;;;;;8.10;7.50;;;;;;;-146.72;100.00;64895.28;5059782;28;20516;-78
2022/07/25 10:14:37;;;;;;;7.93;7.33;;;;;;;-146.72;100.00;64895.28;5076020;28;20424;-77
2022/07/25 10:17:05;;;;;;;8.30;7.70;;;;;;;-146.72;100.00;64895.28;5079327;28;20467;-78
2022/07/25 10:19:49;;;;;;;8.97;8.07;;;;;;;-146.72;100.00;64895.28;5057328;28;20468;-78
2022/07/25 10:22:22;;;;;;;8.47;7.77;;;;;;;-146.72;100.00;64895.28;5068967;28;20630;-77
2022/07/25 10:25:18;;;;;;;8.63;7.83;;;;;;;-146.72;100.00;64895.28;5083815;28;20435;-78
2022/07/25 10:27:51;;;;;;;10.40;8.87;;;;;;;-146.72;100.00;64895.28;5064506;28;20454;-77
2022/07/25 10:30:22;;;;;;;8.57;7.97;;;;;;;-146.72;100.00;64895.28;5079375;28;20462;-77
2022/07/25 10:32:57;;;;;;;8.93;8.20;;;;;;;-146.72;100.00;64895.28;5087186;28;20464;-77
2022/07/25 10:35:26;;;;;;;8.57;7.90;;;;;;;-146.72;100.00;64895.28;5071654;28;20844;-77
2022/07/25 10:37:55;;;;;;;8.70;7.97;;;;;;;-146.72;100.00;64895.28;5070669;28;21018;-78
2022/07/25 10:40:31;;;;;;;7.27;6.67;;;;;;;-146.72;100.00;64895.28;5074181;28;20538;-78
2022/07/25 10:43:21;;;;;;;7.57;6.97;;;;;;;-146.72;100.00;64895.28;5090835;28;20459;-77
2022/07/25 10:45:56;;;;;;;7.60;7.10;;;;;;;-146.72;100.00;64895.28;5071482;28;20855;-77
2022/07/25 10:48:31;;;;;;;8.27;7.57;;;;;;;-146.72;100.00;64895.28;5085108;28;20447;-77
2022/07/25 10:51:11;;;;;;;8.93;8.30;;;;;;;-146.72;100.00;64895.28;5075253;28;20461;-77
2022/07/25 10:53:46;;;;;;;7.67;7.07;;;;;;;-146.72;100.00;64895.28;5063155;28;20551;-78
2022/07/25 10:56:18;;;;;;;9.90;8.77;;;;;;;-146.72;100.00;64895.28;5068957;28;20439;-78
2022/07/25 10:58:50;;;;;;;8.20;7.43;;;;;;;-146.72;100.00;64895.28;5073650;28;20466;-78
2022/07/25 11:01:21;;;;;;;8.33;7.73;;;;;;;-146.72;100.00;64895.28;5061098;28;20432;-78
2022/07/25 11:03:49;;;;;;;7.03;6.60;;;;;;;-146.72;100.00;64895.28;5060069;28;20479;-77
2022/07/25 11:06:28;;;;;;;7.67;7.10;;;;;;;-146.72;100.00;64895.28;5083903;28;20516;-78
2022/07/25 11:08:56;;;;;;;7.60;7.10;;;;;;;-146.72;100.00;64895.28;5058199;28;20511;-77